sensor_id;sensor_type;location;lat;lon;timestamp;P1;durP1;ratioP1;P2;durP2;ratioP2
51913;SDS011;37940;53.002;6.930;2023-03-13T00:01:36;42.08;;;10.55;;
51913;SDS011;37940;53.002;6.930;2023-03-13T00:04:06;39.38;;;8.32;;
51913;SDS011;37940;53.002;6.930;2023-03-13T00:06:34;38.15;;;10.00;;
51913;SDS011;37940;53.002;6.930;2023-03-13T00:09:03;38.70;;;8.80;;
51913;SDS011;37940;53.002;6.930;2023-03-13T00:11:30;47.28;;;8.57;;
51913;SDS011;37940;53.002;6.930;2023-03-13T00:13:56;52.50;;;8.65;;
51913;SDS011;37940;53.002;6.930;2023-03-13T00:16:23;42.03;;;8.38;;
51913;SDS011;37940;53.002;6.930;2023-03-13T00:18:50;47.35;;;7.97;;
51913;SDS011;37940;53.002;6.930;2023-03-13T00:21:18;36.10;;;7.28;;
51913;SDS011;37940;53.002;6.930;2023-03-13T00:23:45;48.47;;;8.55;;
51913;SDS011;37940;53.002;6.930;2023-03-13T00:26:12;41.88;;;8.35;;
51913;SDS011;37940;53.002;6.930;2023-03-13T00:28:40;47.28;;;8.20;;
51913;SDS011;37940;53.002;6.930;2023-03-13T00:31:08;42.20;;;7.95;;
51913;SDS011;37940;53.002;6.930;2023-03-13T00:33:39;41.55;;;8.23;;
51913;SDS011;37940;53.002;6.930;2023-03-13T00:36:08;45.60;;;9.35;;
51913;SDS011;37940;53.002;6.930;2023-03-13T00:38:41;39.72;;;7.82;;
51913;SDS011;37940;53.002;6.930;2023-03-13T00:41:11;54.92;;;8.75;;
51913;SDS011;37940;53.002;6.930;2023-03-13T00:43:42;36.13;;;7.53;;
51913;SDS011;37940;53.002;6.930;2023-03-13T00:46:09;40.95;;;7.97;;
51913;SDS011;37940;53.002;6.930;2023-03-13T00:48:35;38.67;;;8.57;;
51913;SDS011;37940;53.002;6.930;2023-03-13T00:51:01;42.65;;;7.82;;
51913;SDS011;37940;53.002;6.930;2023-03-13T00:53:27;41.28;;;7.60;;
51913;SDS011;37940;53.002;6.930;2023-03-13T00:58:24;37.90;;;7.00;;
51913;SDS011;37940;53.002;6.930;2023-03-13T01:00:51;46.55;;;7.82;;
51913;SDS011;37940;53.002;6.930;2023-03-13T01:03:18;39.10;;;6.97;;
51913;SDS011;37940;53.002;6.930;2023-03-13T01:05:45;37.08;;;7.93;;
51913;SDS011;37940;53.002;6.930;2023-03-13T01:08:20;42.05;;;8.15;;
51913;SDS011;37940;53.002;6.930;2023-03-13T01:10:45;41.85;;;7.15;;
51913;SDS011;37940;53.002;6.930;2023-03-13T01:13:11;37.42;;;7.28;;
51913;SDS011;37940;53.002;6.930;2023-03-13T01:15:37;37.97;;;7.70;;
51913;SDS011;37940;53.002;6.930;2023-03-13T01:18:03;37.58;;;8.27;;
51913;SDS011;37940;53.002;6.930;2023-03-13T01:20:28;42.63;;;8.30;;
51913;SDS011;37940;53.002;6.930;2023-03-13T01:22:54;37.72;;;7.57;;
51913;SDS011;37940;53.002;6.930;2023-03-13T01:25:20;35.22;;;6.90;;
51913;SDS011;37940;53.002;6.930;2023-03-13T01:27:46;36.55;;;7.50;;
51913;SDS011;37940;53.002;6.930;2023-03-13T01:30:11;37.78;;;7.53;;
51913;SDS011;37940;53.002;6.930;2023-03-13T01:32:40;33.80;;;6.85;;
51913;SDS011;37940;53.002;6.930;2023-03-13T01:35:06;41.70;;;7.82;;
51913;SDS011;37940;53.002;6.930;2023-03-13T01:37:32;30.67;;;6.80;;
51913;SDS011;37940;53.002;6.930;2023-03-13T01:39:58;39.42;;;7.53;;
51913;SDS011;37940;53.002;6.930;2023-03-13T01:42:23;35.85;;;7.55;;
51913;SDS011;37940;53.002;6.930;2023-03-13T01:44:56;41.13;;;7.82;;
51913;SDS011;37940;53.002;6.930;2023-03-13T01:47:22;34.05;;;7.32;;
51913;SDS011;37940;53.002;6.930;2023-03-13T01:49:48;30.92;;;6.43;;
51913;SDS011;37940;53.002;6.930;2023-03-13T01:52:17;40.88;;;7.43;;
51913;SDS011;37940;53.002;6.930;2023-03-13T01:55:03;31.48;;;6.90;;
51913;SDS011;37940;53.002;6.930;2023-03-13T01:57:36;35.88;;;7.40;;
51913;SDS011;37940;53.002;6.930;2023-03-13T02:00:07;32.30;;;7.38;;
51913;SDS011;37940;53.002;6.930;2023-03-13T02:02:47;28.33;;;7.65;;
51913;SDS011;37940;53.002;6.930;2023-03-13T02:05:19;35.97;;;7.30;;
51913;SDS011;37940;53.002;6.930;2023-03-13T02:07:50;37.97;;;7.32;;
51913;SDS011;37940;53.002;6.930;2023-03-13T02:10:16;31.40;;;7.43;;
51913;SDS011;37940;53.002;6.930;2023-03-13T02:12:43;31.95;;;7.05;;
51913;SDS011;37940;53.002;6.930;2023-03-13T02:15:16;34.15;;;6.97;;
51913;SDS011;37940;53.002;6.930;2023-03-13T02:17:44;37.53;;;7.45;;
51913;SDS011;37940;53.002;6.930;2023-03-13T02:20:12;27.63;;;7.43;;
51913;SDS011;37940;53.002;6.930;2023-03-13T02:25:48;32.33;;;6.55;;
51913;SDS011;37940;53.002;6.930;2023-03-13T02:28:20;33.60;;;7.50;;
51913;SDS011;37940;53.002;6.930;2023-03-13T02:30:57;34.58;;;7.55;;
51913;SDS011;37940;53.002;6.930;2023-03-13T02:33:32;32.47;;;8.13;;
51913;SDS011;37940;53.002;6.930;2023-03-13T02:36:01;41.10;;;8.20;;
51913;SDS011;37940;53.002;6.930;2023-03-13T02:38:28;36.63;;;8.48;;
51913;SDS011;37940;53.002;6.930;2023-03-13T02:40:58;37.67;;;8.00;;
51913;SDS011;37940;53.002;6.930;2023-03-13T02:43:29;45.47;;;8.52;;
51913;SDS011;37940;53.002;6.930;2023-03-13T02:46:15;34.78;;;6.97;;
51913;SDS011;37940;53.002;6.930;2023-03-13T02:48:48;34.65;;;8.27;;
51913;SDS011;37940;53.002;6.930;2023-03-13T02:51:32;20.98;;;6.90;;
51913;SDS011;37940;53.002;6.930;2023-03-13T02:54:05;26.80;;;7.22;;
51913;SDS011;37940;53.002;6.930;2023-03-13T02:56:36;22.52;;;6.80;;
51913;SDS011;37940;53.002;6.930;2023-03-13T02:59:04;27.10;;;6.85;;
51913;SDS011;37940;53.002;6.930;2023-03-13T03:01:31;28.65;;;7.15;;
51913;SDS011;37940;53.002;6.930;2023-03-13T03:03:57;25.38;;;6.20;;
51913;SDS011;37940;53.002;6.930;2023-03-13T03:06:22;29.95;;;7.05;;
51913;SDS011;37940;53.002;6.930;2023-03-13T03:08:48;21.10;;;6.07;;
51913;SDS011;37940;53.002;6.930;2023-03-13T03:11:14;16.17;;;5.53;;
51913;SDS011;37940;53.002;6.930;2023-03-13T03:13:40;21.40;;;6.28;;
51913;SDS011;37940;53.002;6.930;2023-03-13T03:16:07;21.58;;;6.57;;
51913;SDS011;37940;53.002;6.930;2023-03-13T03:18:35;22.05;;;6.82;;
51913;SDS011;37940;53.002;6.930;2023-03-13T03:21:02;20.20;;;5.82;;
51913;SDS011;37940;53.002;6.930;2023-03-13T03:23:33;22.38;;;6.57;;
51913;SDS011;37940;53.002;6.930;2023-03-13T03:26:00;16.60;;;6.07;;
51913;SDS011;37940;53.002;6.930;2023-03-13T03:28:27;14.35;;;5.93;;
51913;SDS011;37940;53.002;6.930;2023-03-13T03:30:53;18.48;;;6.53;;
51913;SDS011;37940;53.002;6.930;2023-03-13T03:33:19;17.85;;;5.78;;
51913;SDS011;37940;53.002;6.930;2023-03-13T03:35:46;19.27;;;5.65;;
51913;SDS011;37940;53.002;6.930;2023-03-13T03:38:11;17.67;;;5.93;;
51913;SDS011;37940;53.002;6.930;2023-03-13T03:40:37;16.38;;;6.10;;
51913;SDS011;37940;53.002;6.930;2023-03-13T03:43:03;13.10;;;5.43;;
51913;SDS011;37940;53.002;6.930;2023-03-13T03:45:28;12.32;;;5.22;;
51913;SDS011;37940;53.002;6.930;2023-03-13T03:47:54;14.55;;;5.50;;
51913;SDS011;37940;53.002;6.930;2023-03-13T03:50:24;11.45;;;5.10;;
51913;SDS011;37940;53.002;6.930;2023-03-13T03:52:50;17.60;;;5.97;;
51913;SDS011;37940;53.002;6.930;2023-03-13T03:55:16;17.67;;;6.40;;
51913;SDS011;37940;53.002;6.930;2023-03-13T03:57:42;13.23;;;5.53;;
51913;SDS011;37940;53.002;6.930;2023-03-13T04:00:08;14.57;;;5.90;;
51913;SDS011;37940;53.002;6.930;2023-03-13T04:02:36;12.43;;;5.70;;
51913;SDS011;37940;53.002;6.930;2023-03-13T04:05:02;19.00;;;6.53;;
51913;SDS011;37940;53.002;6.930;2023-03-13T04:07:28;14.48;;;6.35;;
51913;SDS011;37940;53.002;6.930;2023-03-13T04:09:54;10.82;;;5.85;;
51913;SDS011;37940;53.002;6.930;2023-03-13T04:12:20;13.23;;;5.65;;
51913;SDS011;37940;53.002;6.930;2023-03-13T04:14:46;17.17;;;6.70;;
51913;SDS011;37940;53.002;6.930;2023-03-13T04:17:11;16.30;;;6.55;;
51913;SDS011;37940;53.002;6.930;2023-03-13T04:19:37;15.30;;;6.68;;
51913;SDS011;37940;53.002;6.930;2023-03-13T04:22:03;15.98;;;6.65;;
51913;SDS011;37940;53.002;6.930;2023-03-13T04:24:29;11.60;;;5.13;;
51913;SDS011;37940;53.002;6.930;2023-03-13T04:26:54;14.70;;;6.20;;
51913;SDS011;37940;53.002;6.930;2023-03-13T04:29:20;12.80;;;5.95;;
51913;SDS011;37940;53.002;6.930;2023-03-13T04:31:46;15.90;;;6.57;;
51913;SDS011;37940;53.002;6.930;2023-03-13T04:34:11;13.30;;;5.65;;
51913;SDS011;37940;53.002;6.930;2023-03-13T04:36:37;13.40;;;6.03;;
51913;SDS011;37940;53.002;6.930;2023-03-13T04:39:03;11.60;;;5.28;;
51913;SDS011;37940;53.002;6.930;2023-03-13T04:41:29;11.13;;;5.65;;
51913;SDS011;37940;53.002;6.930;2023-03-13T04:43:54;11.60;;;5.97;;
51913;SDS011;37940;53.002;6.930;2023-03-13T04:46:20;12.40;;;6.60;;
51913;SDS011;37940;53.002;6.930;2023-03-13T04:48:46;12.55;;;5.60;;
51913;SDS011;37940;53.002;6.930;2023-03-13T04:51:11;14.18;;;6.50;;
51913;SDS011;37940;53.002;6.930;2023-03-13T04:53:37;12.43;;;6.50;;
51913;SDS011;37940;53.002;6.930;2023-03-13T04:56:03;12.70;;;6.22;;
51913;SDS011;37940;53.002;6.930;2023-03-13T04:58:29;14.20;;;6.97;;
51913;SDS011;37940;53.002;6.930;2023-03-13T05:00:54;14.40;;;7.70;;
51913;SDS011;37940;53.002;6.930;2023-03-13T05:03:21;15.23;;;6.78;;
51913;SDS011;37940;53.002;6.930;2023-03-13T05:05:47;13.75;;;7.35;;
51913;SDS011;37940;53.002;6.930;2023-03-13T05:08:13;17.42;;;8.00;;
51913;SDS011;37940;53.002;6.930;2023-03-13T05:10:40;14.10;;;7.00;;
51913;SDS011;37940;53.002;6.930;2023-03-13T05:13:07;12.60;;;7.00;;
51913;SDS011;37940;53.002;6.930;2023-03-13T05:15:32;14.55;;;7.25;;
51913;SDS011;37940;53.002;6.930;2023-03-13T05:17:58;15.45;;;8.90;;
51913;SDS011;37940;53.002;6.930;2023-03-13T05:20:24;14.75;;;8.10;;
51913;SDS011;37940;53.002;6.930;2023-03-13T05:22:49;13.30;;;8.43;;
51913;SDS011;37940;53.002;6.930;2023-03-13T05:25:15;14.38;;;8.15;;
51913;SDS011;37940;53.002;6.930;2023-03-13T05:27:41;16.27;;;8.88;;
51913;SDS011;37940;53.002;6.930;2023-03-13T05:30:07;15.75;;;9.10;;
51913;SDS011;37940;53.002;6.930;2023-03-13T05:32:33;14.82;;;8.30;;
51913;SDS011;37940;53.002;6.930;2023-03-13T05:34:59;16.27;;;9.60;;
51913;SDS011;37940;53.002;6.930;2023-03-13T05:37:27;15.88;;;8.07;;
51913;SDS011;37940;53.002;6.930;2023-03-13T05:39:53;15.35;;;8.75;;
51913;SDS011;37940;53.002;6.930;2023-03-13T05:42:19;15.15;;;9.30;;
51913;SDS011;37940;53.002;6.930;2023-03-13T05:44:44;15.43;;;8.70;;
51913;SDS011;37940;53.002;6.930;2023-03-13T05:47:10;13.77;;;9.05;;
51913;SDS011;37940;53.002;6.930;2023-03-13T05:49:36;11.98;;;8.63;;
51913;SDS011;37940;53.002;6.930;2023-03-13T05:52:01;17.83;;;10.55;;
51913;SDS011;37940;53.002;6.930;2023-03-13T05:54:27;14.77;;;9.48;;
51913;SDS011;37940;53.002;6.930;2023-03-13T05:56:53;17.20;;;8.88;;
51913;SDS011;37940;53.002;6.930;2023-03-13T05:59:18;17.40;;;9.70;;
51913;SDS011;37940;53.002;6.930;2023-03-13T06:01:47;15.27;;;8.55;;
51913;SDS011;37940;53.002;6.930;2023-03-13T06:04:13;12.65;;;8.05;;
51913;SDS011;37940;53.002;6.930;2023-03-13T06:06:39;19.35;;;9.43;;
51913;SDS011;37940;53.002;6.930;2023-03-13T06:09:04;14.35;;;8.82;;
51913;SDS011;37940;53.002;6.930;2023-03-13T06:11:30;17.23;;;7.80;;
51913;SDS011;37940;53.002;6.930;2023-03-13T06:13:56;12.57;;;7.22;;
51913;SDS011;37940;53.002;6.930;2023-03-13T06:16:22;11.95;;;8.10;;
51913;SDS011;37940;53.002;6.930;2023-03-13T06:18:47;12.10;;;7.88;;
51913;SDS011;37940;53.002;6.930;2023-03-13T06:21:13;14.05;;;8.82;;
51913;SDS011;37940;53.002;6.930;2023-03-13T06:23:39;14.10;;;8.25;;
51913;SDS011;37940;53.002;6.930;2023-03-13T06:26:06;15.32;;;8.52;;
51913;SDS011;37940;53.002;6.930;2023-03-13T06:28:32;12.30;;;8.15;;
51913;SDS011;37940;53.002;6.930;2023-03-13T06:31:01;13.43;;;7.90;;
51913;SDS011;37940;53.002;6.930;2023-03-13T06:33:28;15.80;;;8.75;;
51913;SDS011;37940;53.002;6.930;2023-03-13T06:35:55;16.48;;;8.98;;
51913;SDS011;37940;53.002;6.930;2023-03-13T06:38:21;15.15;;;9.63;;
51913;SDS011;37940;53.002;6.930;2023-03-13T06:40:48;14.88;;;8.35;;
51913;SDS011;37940;53.002;6.930;2023-03-13T06:43:13;17.75;;;9.52;;
51913;SDS011;37940;53.002;6.930;2023-03-13T06:45:39;13.43;;;8.20;;
51913;SDS011;37940;53.002;6.930;2023-03-13T06:48:05;14.90;;;9.00;;
51913;SDS011;37940;53.002;6.930;2023-03-13T06:50:31;13.10;;;9.15;;
51913;SDS011;37940;53.002;6.930;2023-03-13T06:52:56;17.08;;;9.43;;
51913;SDS011;37940;53.002;6.930;2023-03-13T06:55:23;15.60;;;9.15;;
51913;SDS011;37940;53.002;6.930;2023-03-13T06:57:49;18.83;;;9.00;;
51913;SDS011;37940;53.002;6.930;2023-03-13T07:00:16;17.17;;;8.55;;
51913;SDS011;37940;53.002;6.930;2023-03-13T07:02:42;15.27;;;7.65;;
51913;SDS011;37940;53.002;6.930;2023-03-13T07:05:08;16.00;;;7.40;;
51913;SDS011;37940;53.002;6.930;2023-03-13T07:07:33;21.77;;;7.93;;
51913;SDS011;37940;53.002;6.930;2023-03-13T07:09:59;19.92;;;7.20;;
51913;SDS011;37940;53.002;6.930;2023-03-13T07:12:25;17.00;;;6.68;;
51913;SDS011;37940;53.002;6.930;2023-03-13T07:14:51;13.82;;;6.40;;
51913;SDS011;37940;53.002;6.930;2023-03-13T07:17:16;17.05;;;7.20;;
51913;SDS011;37940;53.002;6.930;2023-03-13T07:19:42;15.70;;;6.00;;
51913;SDS011;37940;53.002;6.930;2023-03-13T07:22:08;12.93;;;6.63;;
51913;SDS011;37940;53.002;6.930;2023-03-13T07:24:34;13.63;;;5.75;;
51913;SDS011;37940;53.002;6.930;2023-03-13T07:26:59;16.42;;;6.28;;
51913;SDS011;37940;53.002;6.930;2023-03-13T07:29:25;18.98;;;5.88;;
51913;SDS011;37940;53.002;6.930;2023-03-13T07:31:51;17.38;;;6.30;;
51913;SDS011;37940;53.002;6.930;2023-03-13T07:34:16;17.63;;;6.57;;
51913;SDS011;37940;53.002;6.930;2023-03-13T07:36:42;16.35;;;6.47;;
51913;SDS011;37940;53.002;6.930;2023-03-13T07:39:08;16.77;;;6.18;;
51913;SDS011;37940;53.002;6.930;2023-03-13T07:41:33;13.95;;;5.20;;
51913;SDS011;37940;53.002;6.930;2023-03-13T07:43:59;15.55;;;5.18;;
51913;SDS011;37940;53.002;6.930;2023-03-13T07:46:25;18.45;;;5.93;;
51913;SDS011;37940;53.002;6.930;2023-03-13T07:48:51;19.33;;;5.85;;
51913;SDS011;37940;53.002;6.930;2023-03-13T07:51:24;15.13;;;5.63;;
51913;SDS011;37940;53.002;6.930;2023-03-13T07:56:18;11.45;;;4.75;;
51913;SDS011;37940;53.002;6.930;2023-03-13T07:58:45;14.23;;;4.53;;
51913;SDS011;37940;53.002;6.930;2023-03-13T08:01:18;12.13;;;4.72;;
51913;SDS011;37940;53.002;6.930;2023-03-13T08:03:46;10.30;;;4.60;;
51913;SDS011;37940;53.002;6.930;2023-03-13T08:06:20;12.05;;;3.70;;
51913;SDS011;37940;53.002;6.930;2023-03-13T08:08:47;11.43;;;4.07;;
51913;SDS011;37940;53.002;6.930;2023-03-13T08:11:15;12.10;;;3.97;;
51913;SDS011;37940;53.002;6.930;2023-03-13T08:13:42;8.70;;;4.05;;
51913;SDS011;37940;53.002;6.930;2023-03-13T08:18:39;11.95;;;3.80;;
51913;SDS011;37940;53.002;6.930;2023-03-13T08:21:10;8.20;;;3.97;;
51913;SDS011;37940;53.002;6.930;2023-03-13T08:23:40;9.85;;;3.70;;
51913;SDS011;37940;53.002;6.930;2023-03-13T08:28:39;9.60;;;4.30;;
51913;SDS011;37940;53.002;6.930;2023-03-13T08:31:25;9.02;;;3.70;;
51913;SDS011;37940;53.002;6.930;2023-03-13T08:33:55;8.25;;;3.80;;
51913;SDS011;37940;53.002;6.930;2023-03-13T08:36:25;12.30;;;4.22;;
51913;SDS011;37940;53.002;6.930;2023-03-13T08:39:03;7.25;;;3.63;;
51913;SDS011;37940;53.002;6.930;2023-03-13T08:41:32;9.80;;;3.38;;
51913;SDS011;37940;53.002;6.930;2023-03-13T08:46:31;8.77;;;3.70;;
51913;SDS011;37940;53.002;6.930;2023-03-13T08:48:58;7.68;;;3.83;;
51913;SDS011;37940;53.002;6.930;2023-03-13T08:51:25;8.52;;;3.92;;
51913;SDS011;37940;53.002;6.930;2023-03-13T08:53:52;8.55;;;3.60;;
51913;SDS011;37940;53.002;6.930;2023-03-13T08:56:20;11.90;;;3.95;;
51913;SDS011;37940;53.002;6.930;2023-03-13T08:58:51;6.82;;;3.40;;
51913;SDS011;37940;53.002;6.930;2023-03-13T09:01:18;5.85;;;3.15;;
51913;SDS011;37940;53.002;6.930;2023-03-13T09:03:45;9.55;;;3.70;;
51913;SDS011;37940;53.002;6.930;2023-03-13T09:06:11;7.15;;;3.65;;
51913;SDS011;37940;53.002;6.930;2023-03-13T09:08:39;7.50;;;3.60;;
51913;SDS011;37940;53.002;6.930;2023-03-13T09:11:10;6.60;;;3.30;;
51913;SDS011;37940;53.002;6.930;2023-03-13T09:13:38;7.03;;;3.30;;
51913;SDS011;37940;53.002;6.930;2023-03-13T09:16:07;7.75;;;3.20;;
51913;SDS011;37940;53.002;6.930;2023-03-13T09:18:34;6.90;;;3.10;;
51913;SDS011;37940;53.002;6.930;2023-03-13T09:21:01;5.22;;;2.55;;
51913;SDS011;37940;53.002;6.930;2023-03-13T09:23:29;7.82;;;3.05;;
51913;SDS011;37940;53.002;6.930;2023-03-13T09:25:55;6.22;;;2.63;;
51913;SDS011;37940;53.002;6.930;2023-03-13T09:28:22;7.38;;;2.80;;
51913;SDS011;37940;53.002;6.930;2023-03-13T09:30:49;6.50;;;2.65;;
51913;SDS011;37940;53.002;6.930;2023-03-13T09:33:18;7.78;;;2.90;;
51913;SDS011;37940;53.002;6.930;2023-03-13T09:35:46;6.72;;;2.70;;
51913;SDS011;37940;53.002;6.930;2023-03-13T09:38:18;9.90;;;3.15;;
51913;SDS011;37940;53.002;6.930;2023-03-13T09:40:49;6.35;;;2.47;;
51913;SDS011;37940;53.002;6.930;2023-03-13T09:43:18;8.32;;;2.63;;
51913;SDS011;37940;53.002;6.930;2023-03-13T09:45:49;7.93;;;2.90;;
51913;SDS011;37940;53.002;6.930;2023-03-13T09:50:58;7.28;;;2.67;;
51913;SDS011;37940;53.002;6.930;2023-03-13T09:53:37;7.10;;;2.80;;
51913;SDS011;37940;53.002;6.930;2023-03-13T09:56:27;7.43;;;2.72;;
51913;SDS011;37940;53.002;6.930;2023-03-13T09:59:10;7.30;;;2.70;;
51913;SDS011;37940;53.002;6.930;2023-03-13T10:01:43;7.68;;;2.70;;
51913;SDS011;37940;53.002;6.930;2023-03-13T10:06:52;6.97;;;2.92;;
51913;SDS011;37940;53.002;6.930;2023-03-13T10:09:19;8.95;;;2.70;;
51913;SDS011;37940;53.002;6.930;2023-03-13T10:17:42;6.47;;;2.50;;
51913;SDS011;37940;53.002;6.930;2023-03-13T10:20:27;10.68;;;2.47;;
51913;SDS011;37940;53.002;6.930;2023-03-13T10:23:11;5.85;;;2.08;;
51913;SDS011;37940;53.002;6.930;2023-03-13T10:25:42;8.95;;;2.40;;
51913;SDS011;37940;53.002;6.930;2023-03-13T10:28:20;6.35;;;2.40;;
51913;SDS011;37940;53.002;6.930;2023-03-13T10:30:49;8.55;;;2.42;;
51913;SDS011;37940;53.002;6.930;2023-03-13T10:33:27;6.55;;;2.53;;
51913;SDS011;37940;53.002;6.930;2023-03-13T10:38:28;9.05;;;2.20;;
51913;SDS011;37940;53.002;6.930;2023-03-13T10:40:59;10.02;;;2.72;;
51913;SDS011;37940;53.002;6.930;2023-03-13T10:43:27;10.23;;;2.60;;
51913;SDS011;37940;53.002;6.930;2023-03-13T10:45:53;8.75;;;2.67;;
51913;SDS011;37940;53.002;6.930;2023-03-13T10:48:24;7.07;;;2.13;;
51913;SDS011;37940;53.002;6.930;2023-03-13T10:50:54;9.52;;;2.47;;
51913;SDS011;37940;53.002;6.930;2023-03-13T10:59:19;9.43;;;3.00;;
51913;SDS011;37940;53.002;6.930;2023-03-13T11:01:50;7.82;;;2.50;;
51913;SDS011;37940;53.002;6.930;2023-03-13T11:04:28;9.02;;;2.42;;
51913;SDS011;37940;53.002;6.930;2023-03-13T11:07:03;7.95;;;2.60;;
51913;SDS011;37940;53.002;6.930;2023-03-13T11:12:47;14.48;;;3.55;;
51913;SDS011;37940;53.002;6.930;2023-03-13T11:15:22;9.25;;;2.22;;
51913;SDS011;37940;53.002;6.930;2023-03-13T11:17:57;10.75;;;2.67;;
51913;SDS011;37940;53.002;6.930;2023-03-13T11:23:46;11.48;;;2.33;;
51913;SDS011;37940;53.002;6.930;2023-03-13T11:31:45;7.88;;;2.10;;
51913;SDS011;37940;53.002;6.930;2023-03-13T11:34:21;7.93;;;2.65;;
51913;SDS011;37940;53.002;6.930;2023-03-13T11:37:01;8.10;;;2.25;;
51913;SDS011;37940;53.002;6.930;2023-03-13T11:39:44;5.63;;;1.95;;
51913;SDS011;37940;53.002;6.930;2023-03-13T11:48:17;9.40;;;3.28;;
51913;SDS011;37940;53.002;6.930;2023-03-13T11:56:22;6.03;;;1.67;;
51913;SDS011;37940;53.002;6.930;2023-03-13T11:59:05;6.53;;;1.60;;
51913;SDS011;37940;53.002;6.930;2023-03-13T12:01:52;7.95;;;1.60;;
51913;SDS011;37940;53.002;6.930;2023-03-13T12:04:44;5.70;;;1.80;;
51913;SDS011;37940;53.002;6.930;2023-03-13T12:15:16;6.75;;;2.22;;
51913;SDS011;37940;53.002;6.930;2023-03-13T12:17:56;4.85;;;1.70;;
51913;SDS011;37940;53.002;6.930;2023-03-13T12:20:41;4.57;;;1.67;;
51913;SDS011;37940;53.002;6.930;2023-03-13T12:23:18;4.85;;;1.65;;
51913;SDS011;37940;53.002;6.930;2023-03-13T12:25:54;6.25;;;1.98;;
51913;SDS011;37940;53.002;6.930;2023-03-13T12:28:36;6.50;;;2.10;;
51913;SDS011;37940;53.002;6.930;2023-03-13T12:37:07;5.60;;;1.63;;
51913;SDS011;37940;53.002;6.930;2023-03-13T12:39:50;5.53;;;1.73;;
51913;SDS011;37940;53.002;6.930;2023-03-13T12:45:17;9.30;;;2.17;;
51913;SDS011;37940;53.002;6.930;2023-03-13T12:56:40;4.20;;;1.65;;
51913;SDS011;37940;53.002;6.930;2023-03-13T12:59:44;5.43;;;1.75;;
51913;SDS011;37940;53.002;6.930;2023-03-13T13:02:17;5.78;;;1.90;;
51913;SDS011;37940;53.002;6.930;2023-03-13T13:04:46;10.82;;;2.30;;
51913;SDS011;37940;53.002;6.930;2023-03-13T13:12:37;7.78;;;1.90;;
51913;SDS011;37940;53.002;6.930;2023-03-13T13:15:24;8.93;;;2.03;;
51913;SDS011;37940;53.002;6.930;2023-03-13T13:17:53;8.98;;;2.20;;
51913;SDS011;37940;53.002;6.930;2023-03-13T13:23:17;6.25;;;2.20;;
51913;SDS011;37940;53.002;6.930;2023-03-13T13:36:56;7.13;;;2.35;;
51913;SDS011;37940;53.002;6.930;2023-03-13T13:39:31;9.68;;;2.42;;
51913;SDS011;37940;53.002;6.930;2023-03-13T13:41:57;8.93;;;2.65;;
51913;SDS011;37940;53.002;6.930;2023-03-13T13:44:24;12.63;;;2.97;;
51913;SDS011;37940;53.002;6.930;2023-03-13T13:46:54;7.38;;;2.20;;
51913;SDS011;37940;53.002;6.930;2023-03-13T13:49:21;8.65;;;2.67;;
51913;SDS011;37940;53.002;6.930;2023-03-13T13:57:58;12.50;;;2.67;;
51913;SDS011;37940;53.002;6.930;2023-03-13T14:00:28;9.73;;;2.60;;
51913;SDS011;37940;53.002;6.930;2023-03-13T14:03:19;13.30;;;3.25;;
51913;SDS011;37940;53.002;6.930;2023-03-13T14:05:48;13.77;;;3.58;;
51913;SDS011;37940;53.002;6.930;2023-03-13T14:11:06;10.20;;;2.95;;
51913;SDS011;37940;53.002;6.930;2023-03-13T14:13:35;13.93;;;3.20;;
51913;SDS011;37940;53.002;6.930;2023-03-13T14:16:11;10.90;;;2.72;;
51913;SDS011;37940;53.002;6.930;2023-03-13T14:18:48;10.27;;;2.60;;
51913;SDS011;37940;53.002;6.930;2023-03-13T14:21:14;11.68;;;3.03;;
51913;SDS011;37940;53.002;6.930;2023-03-13T14:23:48;16.65;;;3.05;;
51913;SDS011;37940;53.002;6.930;2023-03-13T14:28:46;11.88;;;2.90;;
51913;SDS011;37940;53.002;6.930;2023-03-13T14:31:23;12.77;;;3.17;;
51913;SDS011;37940;53.002;6.930;2023-03-13T14:33:55;13.30;;;3.67;;
51913;SDS011;37940;53.002;6.930;2023-03-13T14:36:22;10.55;;;3.03;;
51913;SDS011;37940;53.002;6.930;2023-03-13T14:38:53;13.32;;;3.15;;
51913;SDS011;37940;53.002;6.930;2023-03-13T14:41:36;14.57;;;3.45;;
51913;SDS011;37940;53.002;6.930;2023-03-13T14:44:27;14.13;;;3.65;;
51913;SDS011;37940;53.002;6.930;2023-03-13T14:46:58;16.60;;;3.65;;
51913;SDS011;37940;53.002;6.930;2023-03-13T14:49:28;11.68;;;3.47;;
51913;SDS011;37940;53.002;6.930;2023-03-13T14:57:32;15.27;;;3.90;;
51913;SDS011;37940;53.002;6.930;2023-03-13T15:00:44;15.38;;;4.30;;
51913;SDS011;37940;53.002;6.930;2023-03-13T15:05:41;20.05;;;3.67;;
51913;SDS011;37940;53.002;6.930;2023-03-13T15:08:18;15.30;;;4.10;;
51913;SDS011;37940;53.002;6.930;2023-03-13T15:10:45;23.50;;;4.25;;
51913;SDS011;37940;53.002;6.930;2023-03-13T15:15:41;14.38;;;3.22;;
51913;SDS011;37940;53.002;6.930;2023-03-13T15:18:14;15.63;;;3.50;;
51913;SDS011;37940;53.002;6.930;2023-03-13T15:20:43;13.38;;;3.70;;
51913;SDS011;37940;53.002;6.930;2023-03-13T15:23:20;17.50;;;3.53;;
51913;SDS011;37940;53.002;6.930;2023-03-13T15:25:47;13.32;;;3.47;;
51913;SDS011;37940;53.002;6.930;2023-03-13T15:28:17;14.43;;;3.22;;
51913;SDS011;37940;53.002;6.930;2023-03-13T15:30:44;13.05;;;3.35;;
51913;SDS011;37940;53.002;6.930;2023-03-13T15:33:15;14.52;;;3.50;;
51913;SDS011;37940;53.002;6.930;2023-03-13T15:35:45;16.02;;;3.85;;
51913;SDS011;37940;53.002;6.930;2023-03-13T15:38:16;18.25;;;4.07;;
51913;SDS011;37940;53.002;6.930;2023-03-13T15:40:44;16.73;;;3.53;;
51913;SDS011;37940;53.002;6.930;2023-03-13T15:43:13;16.00;;;3.78;;
51913;SDS011;37940;53.002;6.930;2023-03-13T15:45:40;16.13;;;3.75;;
51913;SDS011;37940;53.002;6.930;2023-03-13T15:48:11;15.32;;;3.72;;
51913;SDS011;37940;53.002;6.930;2023-03-13T15:50:41;16.80;;;3.60;;
51913;SDS011;37940;53.002;6.930;2023-03-13T15:53:21;16.48;;;3.65;;
51913;SDS011;37940;53.002;6.930;2023-03-13T15:55:49;16.45;;;4.70;;
51913;SDS011;37940;53.002;6.930;2023-03-13T15:58:16;16.42;;;3.95;;
51913;SDS011;37940;53.002;6.930;2023-03-13T16:00:43;16.70;;;4.03;;
51913;SDS011;37940;53.002;6.930;2023-03-13T16:03:27;16.63;;;3.92;;
51913;SDS011;37940;53.002;6.930;2023-03-13T16:05:56;19.88;;;4.35;;
51913;SDS011;37940;53.002;6.930;2023-03-13T16:08:25;18.85;;;3.88;;
51913;SDS011;37940;53.002;6.930;2023-03-13T16:10:52;17.38;;;4.57;;
51913;SDS011;37940;53.002;6.930;2023-03-13T16:13:18;19.08;;;4.28;;
51913;SDS011;37940;53.002;6.930;2023-03-13T16:15:45;19.27;;;4.22;;
51913;SDS011;37940;53.002;6.930;2023-03-13T16:18:18;18.80;;;4.35;;
51913;SDS011;37940;53.002;6.930;2023-03-13T16:20:45;20.45;;;4.60;;
51913;SDS011;37940;53.002;6.930;2023-03-13T16:23:11;21.40;;;4.70;;
51913;SDS011;37940;53.002;6.930;2023-03-13T16:25:37;16.83;;;3.92;;
51913;SDS011;37940;53.002;6.930;2023-03-13T16:28:03;22.80;;;4.53;;
51913;SDS011;37940;53.002;6.930;2023-03-13T16:30:33;27.60;;;5.20;;
51913;SDS011;37940;53.002;6.930;2023-03-13T16:32:59;18.52;;;4.75;;
51913;SDS011;37940;53.002;6.930;2023-03-13T16:35:25;24.45;;;5.28;;
51913;SDS011;37940;53.002;6.930;2023-03-13T16:37:52;17.70;;;4.30;;
51913;SDS011;37940;53.002;6.930;2023-03-13T16:40:20;18.25;;;4.07;;
51913;SDS011;37940;53.002;6.930;2023-03-13T16:42:48;21.85;;;4.70;;
51913;SDS011;37940;53.002;6.930;2023-03-13T16:45:14;19.02;;;4.28;;
51913;SDS011;37940;53.002;6.930;2023-03-13T16:47:40;20.52;;;4.70;;
51913;SDS011;37940;53.002;6.930;2023-03-13T16:50:16;21.27;;;4.88;;
51913;SDS011;37940;53.002;6.930;2023-03-13T16:52:48;17.83;;;4.25;;
51913;SDS011;37940;53.002;6.930;2023-03-13T16:55:14;20.95;;;5.00;;
51913;SDS011;37940;53.002;6.930;2023-03-13T16:57:40;19.77;;;4.68;;